Nearby METAR Reports

 

EIDW - Dublin Airport, Ireland
Distance from station: ENE 79km
Updated: 25/09/2020 13:00
Mostly cloudy
Mostly cloudy
 Wind from NW
Wind: NW 33 km/h
Temperature: 11°C
Dew Point: 6°C
Humidity: 72%
Barometer: 1013 hPa
Clouds: Mostly cloudy
Visibility: 10 km
Cloud details: Mostly cloudy 762 m
2020/09/25 12:00 EIDW 251200Z 32018KT 9999 BKN025 11/06 Q1013 NOSIG
EIME - Casement (mil), Ireland
Distance from station: ENE 62km
Updated: 25/09/2020 13:00
Mostly cloudy
Mostly cloudy
 Wind from NW
Wind: NW 24 km/h
Temperature: 12°C
Dew Point: 6°C
Humidity: 67%
Barometer: 1014 hPa
Clouds: Mostly cloudy
Visibility: 10 km
Cloud details: Few Clouds 671 m
Mostly cloudy 823 m
2020/09/25 12:00 EIME 251200Z 32013KT 280V350 9999 FEW022 BKN027 12/06 Q1014
EIWF - Waterford Arpt, Ireland
Distance from station: S 111km
Updated: 25/09/2020 13:00
Partly cloudy
Partly cloudy
 Wind from NNW
Wind: NNW 31 km/h, Gust: 56 km/h
Temperature: 12°C
Dew Point: 6°C
Humidity: 67%
Barometer: 1015 hPa
Clouds: Partly cloudy
Visibility: 10 km
Cloud details: Partly cloudy 853 m
Partly cloudy 1097 m
2020/09/25 12:00 EIWF 251200Z 33017G30KT 290V010 9999 SCT028 SCT036 12/06 Q1015
 
EINN - Shannon Airport, Ireland
Distance from station: WSW 117km
Updated: 25/09/2020 13:00
Few Clouds
Few Clouds
 Wind from NW
Wind: NW 26 km/h
Temperature: 13°C
Dew Point: 4°C
Humidity: 55%
Barometer: 1018 hPa
Clouds: Few Clouds
Visibility: 10 km
Cloud details: Few Clouds 762 m
2020/09/25 12:00 EINN 251200Z 31014KT 9999 FEW025 13/04 Q1018 NOSIG
EIKN - Connaught Apt, Ireland
Distance from station: NW 127km
Updated: 25/09/2020 13:00
Partly cloudy
Partly cloudy
 Wind from NNW
Wind: NNW 26 km/h
Temperature: 11°C
Dew Point: 4°C
Humidity: 62%
Barometer: 1017 hPa
Clouds: Partly cloudy
Visibility: 10 km
Cloud details: Few Clouds 366 m
Few Clouds 549 m
Partly cloudy 1189 m
2020/09/25 12:00 EIKN 251200Z 33014KT 290V360 9999 FEW012 FEW018CB SCT039 11/04 Q1017 NOSIG
EISG - Sligo Arpt, Ireland
Distance from station: NNW 148km
Updated: 25/09/2020 13:00
Few Clouds
Few Clouds
 Wind from NNW
Wind: NNW 26 km/h
Temperature: 12°C
Dew Point: 4°C
Humidity: 58%
Barometer: 1017 hPa
Clouds: Few Clouds
Visibility: 10 km
Cloud details: Few Clouds 1250 m
2020/09/25 12:00 EISG 251200Z 33014KT 9999 FEW041 12/04 Q1017
 
EICK - Cork Arpt/Corcai, Ireland
Distance from station: SSW 165km
Updated: 25/09/2020 13:00
Partly cloudy
Partly cloudy
 Wind from NW
Wind: NW 35 km/h
Temperature: 12°C
Dew Point: 3°C
Humidity: 54%
Barometer: 1017 hPa
Clouds: Partly cloudy
Visibility: 10 km
Cloud details: Few Clouds 549 m
Partly cloudy 1036 m
2020/09/25 12:00 EICK 251200Z 31019KT 9999 FEW018CB SCT034 12/03 Q1017 NOSIG
EGAA - Belfast/Aldergro, United Kingdom
Distance from station: NNE 179km
Updated: 25/09/2020 13:20
Partly cloudy
Partly cloudy
 Wind from NNW
Wind: NNW 22 km/h
Temperature: 12°C
Dew Point: 7°C
Humidity: 72%
Barometer: 1013 hPa
Clouds: Partly cloudy
Visibility: 10 km
Cloud details: Partly cloudy 945 m
2020/09/25 12:20 EGAA 251220Z 34012KT 300V010 9999 SCT031 12/07 Q1013
EIKY - Kerry Arpt, Ireland
Distance from station: SW 182km
Updated: 25/09/2020 13:00
Partly cloudy
Partly cloudy
 Wind from NNW
Wind: NNW 17 km/h
Temperature: 12°C
Dew Point: 6°C
Humidity: 67%
Barometer: 1019 hPa
Clouds: Partly cloudy
Visibility: 10 km
Cloud details: Partly cloudy 1494 m
2020/09/25 12:00 EIKY 251200Z 34009KT 310V010 9999 SCT049 12/06 Q1019
 
EGAC - Belfast Harbour, United Kingdom
Distance from station: NNE 188km
Updated: 25/09/2020 13:20
Few Clouds
Few Clouds
 Wind from NNW
Wind: NNW 26 km/h
Temperature: 12°C
Dew Point: 5°C
Humidity: 63%
Barometer: 1013 hPa
Clouds: Few Clouds
Visibility: 10 km
Cloud details: Few Clouds 1158 m
2020/09/25 12:20 EGAC 251220Z AUTO 33014KT 9999 FEW038/// 12/05 Q1013
EGOV - Valley Raf, United Kingdom
Distance from station: E 188km
Updated: 25/09/2020 13:20
Partly cloudy
Partly cloudy
 Wind from NNW
Wind: NNW 33 km/h
Temperature: 14°C
Dew Point: 7°C
Humidity: 63%
Barometer: 1011 hPa
Clouds: Partly cloudy
Visibility: 10 km
Cloud details: Partly cloudy 853 m
2020/09/25 12:20 EGOV 251220Z 33018KT 9999 SCT028 14/07 Q1011 NOSIG RMK BLU BLU
EGNS - Isle Of Man/Rona, United Kingdom
Distance from station: ENE 207km
Updated: 25/09/2020 13:20
Few Clouds
Few Clouds
 Wind from NNW
Wind: NNW 30 km/h, Gust: 50 km/h
Temperature: 13°C
Dew Point: 4°C
Humidity: 55%
Barometer: 1010 hPa
Clouds: Few Clouds
Visibility: 10 km
Cloud details: Few Clouds 762 m
2020/09/25 12:20 EGNS 251220Z 33016G27KT 310V010 9999 FEW025CB 13/04 Q1010 NOSIG